Time;durP1;ratioP1;P1;durP2;ratioP2;P2;SDS_P1;SDS_P2;PMS_P1;PMS_P2;Temp;Humidity;BMP_temperature;BMP_pressure;BME280_temperature;BME280_humidity;BME280_pressure;Samples;Min_cycle;Max_cycle;Signal;HPM_P1;HPM_P2
2023/10/11 00:01:58;;;;;;;0.00;0.00;;;;;;;;;;5057465;28;20025;-91
2023/10/11 00:04:23;;;;;;;0.00;0.00;;;;;;;;;;5073701;28;20029;-91
2023/10/11 00:06:50;;;;;;;0.00;0.00;;;;;;;;;;5073783;28;20021;-90
2023/10/11 00:09:20;;;;;;;0.00;0.00;;;;;;;;;;5056838;28;20115;-93
2023/10/11 00:11:45;;;;;;;0.20;0.00;;;;;;;;;;5057150;28;20071;-84
2023/10/11 00:14:13;;;;;;;0.00;0.00;;;;;;;;;;5037439;28;20410;-90
2023/10/11 00:16:40;;;;;;;0.00;0.00;;;;;;;;;;5037271;28;20025;-91
2023/10/11 00:19:09;;;;;;;0.00;0.00;;;;;;;;;;5020863;28;20029;-93
2023/10/11 00:21:41;;;;;;;0.22;0.00;;;;;;;;;;5021337;28;20040;-94
2023/10/11 00:24:07;;;;;;;0.00;0.00;;;;;;;;;;5037790;28;20037;-94
2023/10/11 00:26:40;;;;;;;0.00;0.00;;;;;;;;;;5053448;28;20040;-93
2023/10/11 00:29:05;;;;;;;0.00;0.00;;;;;;;;;;5022305;28;20504;-90
2023/10/11 00:31:33;;;;;;;0.00;0.00;;;;;;;;;;5036356;28;20028;-91
2023/10/11 00:33:59;;;;;;;0.00;0.00;;;;;;;;;;5036963;28;20025;-93
2023/10/11 00:36:29;;;;;;;0.00;0.00;;;;;;;;;;5036615;28;20028;-90
2023/10/11 00:38:56;;;;;;;0.00;0.00;;;;;;;;;;5071502;28;20052;-92
2023/10/11 00:41:25;;;;;;;0.00;0.00;;;;;;;;;;5039968;28;20056;-92
2023/10/11 00:43:54;;;;;;;0.00;0.00;;;;;;;;;;5059057;28;20024;-90
2023/10/11 00:46:22;;;;;;;0.03;0.00;;;;;;;;;;5040982;28;20144;-94
2023/10/11 00:48:54;;;;;;;0.08;0.00;;;;;;;;;;5039992;28;20381;-95
2023/10/11 00:51:29;;;;;;;0.00;0.00;;;;;;;;;;5058264;28;20467;-91
2023/10/11 00:53:55;;;;;;;0.00;0.00;;;;;;;;;;5077086;28;20454;-95
2023/10/11 00:56:21;;;;;;;0.00;0.00;;;;;;;;;;5063261;28;20338;-91
2023/10/11 00:58:51;;;;;;;0.00;0.00;;;;;;;;;;5066128;28;20095;-93
2023/10/11 01:01:17;;;;;;;0.00;0.00;;;;;;;;;;5060801;28;20126;-95
2023/10/11 01:03:43;;;;;;;0.00;0.00;;;;;;;;;;5055194;28;20075;-91
2023/10/11 01:06:12;;;;;;;0.00;0.00;;;;;;;;;;5062860;28;20050;-89
2023/10/11 01:08:40;;;;;;;0.00;0.00;;;;;;;;;;5097544;28;20087;-91
2023/10/11 01:11:11;;;;;;;0.00;0.00;;;;;;;;;;5076843;28;20039;-94
2023/10/11 01:13:40;;;;;;;0.00;0.00;;;;;;;;;;5043454;28;20090;-90
2023/10/11 01:16:14;;;;;;;0.00;0.00;;;;;;;;;;5073858;28;20069;-91
2023/10/11 01:18:40;;;;;;;0.00;0.00;;;;;;;;;;5041244;28;20111;-93
2023/10/11 01:21:07;;;;;;;0.00;0.00;;;;;;;;;;5039974;28;20020;-93
2023/10/11 01:23:34;;;;;;;0.00;0.00;;;;;;;;;;5040002;28;20036;-92
2023/10/11 01:26:09;;;;;;;0.00;0.00;;;;;;;;;;5039669;28;20032;-90
2023/10/11 01:28:41;;;;;;;0.00;0.00;;;;;;;;;;5041001;28;20457;-90
2023/10/11 01:31:11;;;;;;;0.00;0.00;;;;;;;;;;5056016;28;20090;-92
2023/10/11 01:33:37;;;;;;;0.00;0.00;;;;;;;;;;5056457;28;20025;-91
2023/10/11 01:36:07;;;;;;;0.00;0.00;;;;;;;;;;5039687;28;20020;-94
2023/10/11 01:38:45;;;;;;;0.00;0.00;;;;;;;;;;5041134;28;20432;-92
2023/10/11 01:41:13;;;;;;;0.00;0.00;;;;;;;;;;5026784;28;20029;-94
2023/10/11 01:43:38;;;;;;;0.00;0.00;;;;;;;;;;5023916;28;20024;-94
2023/10/11 01:46:04;;;;;;;0.00;0.00;;;;;;;;;;5041198;28;20025;-92
2023/10/11 01:48:29;;;;;;;0.00;0.00;;;;;;;;;;5057324;28;20060;-95
2023/10/11 01:51:05;;;;;;;0.00;0.00;;;;;;;;;;5056667;28;20054;-94
2023/10/11 01:53:31;;;;;;;0.00;0.00;;;;;;;;;;5042814;28;20036;-94
2023/10/11 01:55:56;;;;;;;0.00;0.00;;;;;;;;;;5026891;28;20039;-93
2023/10/11 01:58:22;;;;;;;0.00;0.00;;;;;;;;;;5039709;28;20353;-94
2023/10/11 02:00:49;;;;;;;0.00;0.00;;;;;;;;;;5042479;28;20370;-92
2023/10/11 02:03:15;;;;;;;0.00;0.00;;;;;;;;;;5043477;28;20039;-92
2023/10/11 02:05:41;;;;;;;0.00;0.00;;;;;;;;;;5028012;28;20032;-92
2023/10/11 02:08:06;;;;;;;0.00;0.00;;;;;;;;;;5049430;28;20025;-94
2023/10/11 02:10:36;;;;;;;0.00;0.00;;;;;;;;;;5048089;28;20063;-90
2023/10/11 02:13:03;;;;;;;0.00;0.00;;;;;;;;;;5069877;28;20461;-94
2023/10/11 02:15:29;;;;;;;0.00;0.00;;;;;;;;;;5036180;28;20376;-93
2023/10/11 02:17:55;;;;;;;0.00;0.00;;;;;;;;;;5032985;28;20048;-91
2023/10/11 02:20:21;;;;;;;0.00;0.00;;;;;;;;;;5064718;28;20029;-94
2023/10/11 02:22:51;;;;;;;0.00;0.00;;;;;;;;;;5031584;28;20054;-94
2023/10/11 02:25:18;;;;;;;0.00;0.00;;;;;;;;;;5057114;28;20047;-91
2023/10/11 02:27:44;;;;;;;0.00;0.00;;;;;;;;;;5073040;28;20044;-91
2023/10/11 02:30:13;;;;;;;0.00;0.00;;;;;;;;;;5059508;28;20013;-92
2023/10/11 02:32:42;;;;;;;0.00;0.00;;;;;;;;;;5072438;28;20067;-95
2023/10/11 02:35:12;;;;;;;0.00;0.00;;;;;;;;;;5077085;28;20031;-95
2023/10/11 02:37:39;;;;;;;0.00;0.00;;;;;;;;;;5056078;28;20063;-96
2023/10/11 02:40:08;;;;;;;0.00;0.00;;;;;;;;;;5063237;28;20029;-96
2023/10/11 02:42:36;;;;;;;0.00;0.00;;;;;;;;;;5062804;28;20032;-95
2023/10/11 02:45:06;;;;;;;0.00;0.00;;;;;;;;;;5061997;28;20024;-93
2023/10/11 02:47:35;;;;;;;0.00;0.00;;;;;;;;;;5061161;28;20029;-94
2023/10/11 02:50:07;;;;;;;0.00;0.00;;;;;;;;;;5059307;28;20032;-92
2023/10/11 02:52:39;;;;;;;0.00;0.00;;;;;;;;;;5060907;28;20042;-93
2023/10/11 02:55:41;;;;;;;0.00;0.00;;;;;;;;;;5056948;28;20029;-93
2023/10/11 02:58:07;;;;;;;0.00;0.00;;;;;;;;;;5061301;28;20466;-92
2023/10/11 03:00:34;;;;;;;0.00;0.00;;;;;;;;;;5060361;28;20043;-94
2023/10/11 03:03:00;;;;;;;0.00;0.00;;;;;;;;;;5058362;28;20028;-93
2023/10/11 03:05:29;;;;;;;0.00;0.00;;;;;;;;;;5043154;28;20039;-91
2023/10/11 03:07:55;;;;;;;0.00;0.00;;;;;;;;;;5027504;28;20047;-93
2023/10/11 03:10:22;;;;;;;0.00;0.00;;;;;;;;;;5048737;28;20082;-91
2023/10/11 03:12:51;;;;;;;0.00;0.00;;;;;;;;;;5041590;28;20037;-91
2023/10/11 03:15:19;;;;;;;0.00;0.00;;;;;;;;;;5048457;28;20115;-93
2023/10/11 03:17:52;;;;;;;0.00;0.00;;;;;;;;;;5042696;28;20032;-91
2023/10/11 03:20:35;;;;;;;0.00;0.00;;;;;;;;;;5042907;28;20024;-93
2023/10/11 03:23:04;;;;;;;0.00;0.00;;;;;;;;;;5066907;28;20036;-94
2023/10/11 03:25:30;;;;;;;0.00;0.00;;;;;;;;;;5088464;28;20154;-93
2023/10/11 03:27:57;;;;;;;0.20;0.00;;;;;;;;;;5055419;28;20071;-93
2023/10/11 03:30:23;;;;;;;0.00;0.00;;;;;;;;;;5080726;28;20033;-94
2023/10/11 03:32:49;;;;;;;0.00;0.00;;;;;;;;;;5057987;28;20520;-92
2023/10/11 03:35:18;;;;;;;0.00;0.00;;;;;;;;;;5042692;28;20123;-92
2023/10/11 03:37:57;;;;;;;0.00;0.00;;;;;;;;;;5064604;28;20052;-95
2023/10/11 03:40:34;;;;;;;0.00;0.00;;;;;;;;;;5083490;28;20081;-93
2023/10/11 03:43:16;;;;;;;0.00;0.00;;;;;;;;;;5062286;28;20024;-91
2023/10/11 03:45:49;;;;;;;0.00;0.00;;;;;;;;;;5078149;28;20097;-89
2023/10/11 03:48:16;;;;;;;0.00;0.00;;;;;;;;;;5061586;28;20388;-88
2023/10/11 03:50:47;;;;;;;0.00;0.00;;;;;;;;;;5062420;28;20036;-92
2023/10/11 03:53:16;;;;;;;0.00;0.00;;;;;;;;;;5096319;28;20036;-90
2023/10/11 03:55:48;;;;;;;0.00;0.00;;;;;;;;;;5095422;28;20031;-92
2023/10/11 03:58:33;;;;;;;0.00;0.00;;;;;;;;;;5045922;28;20055;-91
2023/10/11 04:01:14;;;;;;;0.00;0.00;;;;;;;;;;5080738;28;20369;-94
2023/10/11 04:03:43;;;;;;;0.00;0.00;;;;;;;;;;5063837;28;20028;-91
2023/10/11 04:06:14;;;;;;;0.00;0.00;;;;;;;;;;5061114;28;20093;-91
2023/10/11 04:08:54;;;;;;;0.10;0.00;;;;;;;;;;5077858;28;20445;-88
2023/10/11 04:11:30;;;;;;;0.00;0.00;;;;;;;;;;5047024;28;20093;-92
2023/10/11 04:13:56;;;;;;;0.00;0.00;;;;;;;;;;5027725;28;20352;-89
2023/10/11 04:16:23;;;;;;;0.03;0.00;;;;;;;;;;5057641;28;20123;-92
2023/10/11 04:18:52;;;;;;;0.00;0.00;;;;;;;;;;5058287;28;20371;-91
2023/10/11 04:23:55;;;;;;;0.00;0.00;;;;;;;;;;5057668;28;20020;-94
2023/10/11 04:26:33;;;;;;;0.00;0.00;;;;;;;;;;5046295;28;20028;-91
2023/10/11 04:29:18;;;;;;;0.00;0.00;;;;;;;;;;5046674;28;20024;-91
2023/10/11 04:32:09;;;;;;;0.00;0.00;;;;;;;;;;5047905;28;20029;-93
2023/10/11 04:34:32;;;;;;;0.00;0.00;;;;;;;;;;5071059;28;20036;-90
2023/10/11 04:37:16;;;;;;;0.00;0.00;;;;;;;;;;5024158;28;20031;-91
2023/10/11 04:40:38;;;;;;;0.00;0.00;;;;;;;;;;5043253;28;20028;-90
2023/10/11 04:42:32;;;;;;;0.00;0.00;;;;;;;;;;5062191;28;20127;-90
2023/10/11 04:44:58;;;;;;;0.00;0.00;;;;;;;;;;5038414;28;20051;-81
2023/10/11 04:47:24;;;;;;;0.00;0.00;;;;;;;;;;5038590;28;20419;-82
2023/10/11 04:49:52;;;;;;;0.00;0.00;;;;;;;;;;5056015;28;20020;-82
2023/10/11 04:52:36;;;;;;;0.00;0.00;;;;;;;;;;5040120;28;20115;-82
2023/10/11 04:55:12;;;;;;;0.00;0.00;;;;;;;;;;5070764;28;20025;-82
2023/10/11 04:58:38;;;;;;;0.00;0.00;;;;;;;;;;5055078;28;20036;-82
2023/10/11 05:00:43;;;;;;;0.00;0.00;;;;;;;;;;5050368;28;20044;-79
2023/10/11 05:03:15;;;;;;;0.00;0.00;;;;;;;;;;5060402;28;20298;-80
2023/10/11 05:09:02;;;;;;;0.00;0.00;;;;;;;;;;5104433;22;20555;-85
2023/10/11 05:30:44;;;;;;;0.00;0.00;;;;;;;;;;5047331;28;20087;-86
2023/10/11 05:51:29;;;;;;;0.15;0.00;;;;;;;;;;5045545;28;20577;-83
2023/10/11 05:53:55;;;;;;;0.00;0.00;;;;;;;;;;5017777;28;20037;-83
2023/10/11 05:56:21;;;;;;;0.00;0.00;;;;;;;;;;5025027;28;20212;-82
2023/10/11 05:58:58;;;;;;;0.00;0.00;;;;;;;;;;5013726;28;20123;-84
2023/10/11 06:01:55;;;;;;;;;;;;;;;;;;;;;
2023/10/11 06:04:23;;;;;;;0.00;0.00;;;;;;;;;;5043248;22;20124;-83
2023/10/11 06:07:08;;;;;;;0.10;0.00;;;;;;;;;;5048254;28;20037;-85
2023/10/11 06:09:52;;;;;;;0.00;0.00;;;;;;;;;;5062315;28;20033;-83
2023/10/11 06:12:33;;;;;;;0.00;0.00;;;;;;;;;;5061213;28;20033;-84
2023/10/11 06:15:16;;;;;;;0.00;0.00;;;;;;;;;;5034708;28;20128;-82
2023/10/11 06:17:42;;;;;;;0.00;0.00;;;;;;;;;;5032002;28;20033;-85
2023/10/11 06:20:27;;;;;;;0.00;0.00;;;;;;;;;;5081729;28;20040;-82
2023/10/11 06:22:55;;;;;;;0.00;0.00;;;;;;;;;;5084452;28;20077;-85
2023/10/11 06:42:14;;;;;;;0.00;0.00;;;;;;;;;;5045679;28;20539;-84
2023/10/11 06:44:48;;;;;;;0.00;0.00;;;;;;;;;;5081861;28;20055;-80
2023/10/11 06:47:18;;;;;;;0.00;0.00;;;;;;;;;;5053145;28;20065;-82
2023/10/11 06:49:53;;;;;;;0.00;0.00;;;;;;;;;;5066896;28;20032;-83
2023/10/11 06:52:42;;;;;;;0.00;0.00;;;;;;;;;;5063884;28;20036;-83
2023/10/11 07:01:20;;;;;;;0.00;0.00;;;;;;;;;;5178814;22;20099;-80
2023/10/11 07:04:16;;;;;;;0.00;0.00;;;;;;;;;;5078124;28;20039;-80
2023/10/11 07:06:42;;;;;;;0.00;0.00;;;;;;;;;;5044403;28;20056;-82
2023/10/11 07:09:19;;;;;;;0.00;0.00;;;;;;;;;;5059461;28;20120;-82
2023/10/11 07:12:28;;;;;;;0.00;0.00;;;;;;;;;;5051618;28;20025;-82
2023/10/11 07:14:40;;;;;;;0.10;0.00;;;;;;;;;;5062646;28;20040;-88
2023/10/11 07:17:08;;;;;;;0.00;0.00;;;;;;;;;;5048743;28;20031;-81
2023/10/11 07:20:29;;;;;;;0.00;0.00;;;;;;;;;;5062861;28;20067;-85
2023/10/11 07:22:54;;;;;;;0.00;0.00;;;;;;;;;;5045358;28;20127;-84
2023/10/11 07:25:59;;;;;;;;;;;;;;;;;;;;;
2023/10/11 07:28:11;;;;;;;0.00;0.00;;;;;;;;;;5063077;28;20507;-85
2023/10/11 07:31:23;;;;;;;0.00;0.00;;;;;;;;;;5083958;28;20032;-87
2023/10/11 07:33:55;;;;;;;0.00;0.00;;;;;;;;;;4980249;28;20061;-81
2023/10/11 07:36:22;;;;;;;0.00;0.00;;;;;;;;;;4996190;28;20070;-81
2023/10/11 07:38:54;;;;;;;0.00;0.00;;;;;;;;;;5058497;28;20032;-83
2023/10/11 07:41:21;;;;;;;0.00;0.00;;;;;;;;;;5043288;28;20039;-83
2023/10/11 07:43:47;;;;;;;0.00;0.00;;;;;;;;;;5058436;28;20484;-82
2023/10/11 07:46:13;;;;;;;0.00;0.00;;;;;;;;;;5058344;28;20033;-80
2023/10/11 07:48:44;;;;;;;0.00;0.00;;;;;;;;;;5047940;28;20028;-86
2023/10/11 07:51:10;;;;;;;0.00;0.00;;;;;;;;;;5088626;28;20028;-85
2023/10/11 07:53:45;;;;;;;0.00;0.00;;;;;;;;;;5066877;28;20043;-90
2023/10/11 07:56:15;;;;;;;0.00;0.00;;;;;;;;;;5030669;28;20021;-86
2023/10/11 07:58:46;;;;;;;0.00;0.00;;;;;;;;;;5049312;28;20028;-88
2023/10/11 08:01:26;;;;;;;0.00;0.00;;;;;;;;;;5030816;28;20044;-87
2023/10/11 08:03:55;;;;;;;0.00;0.00;;;;;;;;;;5044588;28;20032;-92
2023/10/11 08:06:27;;;;;;;0.00;0.00;;;;;;;;;;5047705;28;20036;-90
2023/10/11 08:09:45;;;;;;;0.00;0.00;;;;;;;;;;5029138;28;20427;-88
2023/10/11 08:12:07;;;;;;;0.00;0.00;;;;;;;;;;5054119;28;20058;-93
2023/10/11 08:14:28;;;;;;;0.00;0.00;;;;;;;;;;5062326;28;20079;-93
2023/10/11 08:20:34;;;;;;;0.00;0.00;;;;;;;;;;5032163;28;20044;-87
2023/10/11 08:23:12;;;;;;;0.00;0.00;;;;;;;;;;5044097;22;20088;-89
2023/10/11 08:25:39;;;;;;;0.00;0.00;;;;;;;;;;5034960;28;20044;-86
2023/10/11 08:28:12;;;;;;;0.05;0.00;;;;;;;;;;5041969;28;20033;-84
2023/10/11 08:30:45;;;;;;;0.00;0.00;;;;;;;;;;5053970;28;20036;-88
2023/10/11 08:33:25;;;;;;;0.00;0.00;;;;;;;;;;5045756;28;20670;-94
2023/10/11 08:38:53;;;;;;;0.00;0.00;;;;;;;;;;5054006;22;20061;-88
2023/10/11 08:41:35;;;;;;;0.00;0.00;;;;;;;;;;5034933;28;20183;-87
2023/10/11 08:44:03;;;;;;;0.00;0.00;;;;;;;;;;5052634;28;20540;-88
2023/10/11 08:46:34;;;;;;;0.00;0.00;;;;;;;;;;5022679;28;20037;-88
2023/10/11 08:49:19;;;;;;;0.00;0.00;;;;;;;;;;5006138;28;20065;-86
2023/10/11 08:51:48;;;;;;;0.00;0.00;;;;;;;;;;5038465;28;20029;-87
2023/10/11 08:54:25;;;;;;;0.00;0.00;;;;;;;;;;5024503;28;20439;-86
2023/10/11 08:57:03;;;;;;;0.00;0.00;;;;;;;;;;5029964;28;20048;-89
2023/10/11 08:59:39;;;;;;;0.00;0.00;;;;;;;;;;5036626;28;20060;-91
2023/10/11 09:02:08;;;;;;;0.00;0.00;;;;;;;;;;5048838;28;20033;-89
2023/10/11 09:04:35;;;;;;;0.00;0.00;;;;;;;;;;5051149;28;20024;-95
2023/10/11 09:07:01;;;;;;;0.00;0.00;;;;;;;;;;5017631;28;20048;-87
2023/10/11 09:09:40;;;;;;;0.00;0.00;;;;;;;;;;5025151;28;20037;-90
2023/10/11 09:12:26;;;;;;;0.00;0.00;;;;;;;;;;5010240;28;20044;-84
2023/10/11 09:15:00;;;;;;;0.00;0.00;;;;;;;;;;5045599;28;20029;-84
2023/10/11 09:17:27;;;;;;;0.00;0.00;;;;;;;;;;5020763;28;20056;-84
2023/10/11 09:19:56;;;;;;;0.00;0.00;;;;;;;;;;5040992;28;20039;-90
2023/10/11 09:22:23;;;;;;;0.00;0.00;;;;;;;;;;5043941;28;20021;-91
2023/10/11 09:25:06;;;;;;;0.00;0.00;;;;;;;;;;5049082;28;20057;-93
2023/10/11 09:27:51;;;;;;;0.00;0.00;;;;;;;;;;5033889;28;20443;-87
2023/10/11 09:30:26;;;;;;;0.00;0.00;;;;;;;;;;5013319;28;20036;-86
2023/10/11 09:32:59;;;;;;;0.00;0.00;;;;;;;;;;5013526;28;20048;-84
2023/10/11 09:35:31;;;;;;;0.03;0.00;;;;;;;;;;5025232;28;20065;-86
2023/10/11 09:45:16;;;;;;;0.00;0.00;;;;;;;;;;5081322;22;20071;-87
2023/10/11 09:47:44;;;;;;;0.00;0.00;;;;;;;;;;5076979;28;20028;-86
2023/10/11 09:50:26;;;;;;;0.00;0.00;;;;;;;;;;5062829;28;20025;-85
2023/10/11 09:52:53;;;;;;;0.00;0.00;;;;;;;;;;5064966;28;20029;-86
2023/10/11 09:55:22;;;;;;;0.00;0.00;;;;;;;;;;5085395;28;20019;-84
2023/10/11 09:57:55;;;;;;;0.00;0.00;;;;;;;;;;5089903;28;20031;-83
2023/10/11 10:00:43;;;;;;;0.00;0.00;;;;;;;;;;5119489;28;20126;-86
2023/10/11 10:03:15;;;;;;;0.00;0.00;;;;;;;;;;5049416;28;20496;-87
2023/10/11 10:06:31;;;;;;;0.00;0.00;;;;;;;;;;5061988;28;20458;-83
2023/10/11 10:09:18;;;;;;;0.00;0.00;;;;;;;;;;5067712;28;20040;-89
2023/10/11 10:12:10;;;;;;;0.00;0.00;;;;;;;;;;5066989;28;20054;-85
2023/10/11 10:14:36;;;;;;;0.00;0.00;;;;;;;;;;5069653;28;20064;-90
2023/10/11 10:17:18;;;;;;;0.00;0.00;;;;;;;;;;5065984;28;20453;-86
2023/10/11 10:19:47;;;;;;;0.00;0.00;;;;;;;;;;5084748;28;20024;-87
2023/10/11 10:22:16;;;;;;;0.00;0.00;;;;;;;;;;5071570;28;20032;-86
2023/10/11 10:24:43;;;;;;;0.00;0.00;;;;;;;;;;5090585;28;20359;-85
2023/10/11 10:27:33;;;;;;;0.00;0.00;;;;;;;;;;5052882;28;20517;-85
2023/10/11 10:33:22;;;;;;;0.00;0.00;;;;;;;;;;5337527;22;20067;-85
2023/10/11 10:36:01;;;;;;;0.00;0.00;;;;;;;;;;5028830;28;20287;-83
2023/10/11 10:41:52;;;;;;;;;;;;;;;;;;;;;
2023/10/11 10:44:29;;;;;;;0.00;0.00;;;;;;;;;;5078093;22;20136;-93
2023/10/11 10:47:49;;;;;;;0.00;0.00;;;;;;;;;;5072339;28;20036;-89
2023/10/11 10:50:21;;;;;;;0.00;0.00;;;;;;;;;;5068306;28;20067;-94
2023/10/11 10:52:55;;;;;;;0.00;0.00;;;;;;;;;;5083910;28;20066;-91
2023/10/11 10:55:20;;;;;;;0.00;0.00;;;;;;;;;;5085743;28;20028;-86
2023/10/11 10:57:49;;;;;;;0.20;0.00;;;;;;;;;;5067451;28;20056;-89
2023/10/11 11:00:22;;;;;;;0.00;0.00;;;;;;;;;;5067877;28;20025;-88
2023/10/11 11:02:47;;;;;;;0.00;0.00;;;;;;;;;;5086306;28;20024;-90
2023/10/11 11:05:23;;;;;;;0.00;0.00;;;;;;;;;;5088721;28;20035;-86
2023/10/11 11:07:49;;;;;;;0.00;0.00;;;;;;;;;;5089289;28;20050;-88
2023/10/11 11:10:19;;;;;;;0.00;0.00;;;;;;;;;;5110137;28;20096;-90
2023/10/11 11:12:45;;;;;;;0.00;0.00;;;;;;;;;;5090667;28;20036;-89
2023/10/11 11:15:20;;;;;;;0.00;0.00;;;;;;;;;;5057214;28;20031;-88
2023/10/11 11:17:51;;;;;;;0.00;0.00;;;;;;;;;;5057567;28;20031;-87
2023/10/11 11:22:46;;;;;;;0.00;0.00;;;;;;;;;;5089613;28;20480;-88
2023/10/11 11:28:16;;;;;;;0.00;0.00;;;;;;;;;;5090554;28;20059;-88
2023/10/11 11:30:45;;;;;;;0.00;0.00;;;;;;;;;;5066379;28;20414;-87
2023/10/11 11:33:28;;;;;;;0.00;0.00;;;;;;;;;;5077620;28;20036;-87
2023/10/11 11:35:55;;;;;;;0.00;0.00;;;;;;;;;;5052999;28;20056;-89
2023/10/11 11:38:23;;;;;;;0.00;0.00;;;;;;;;;;5100178;28;20014;-88
2023/10/11 11:40:52;;;;;;;0.00;0.00;;;;;;;;;;5086216;28;20084;-90
2023/10/11 11:43:20;;;;;;;0.00;0.00;;;;;;;;;;5067484;28;20023;-88
2023/10/11 11:45:47;;;;;;;0.00;0.00;;;;;;;;;;5063446;28;20063;-89
2023/10/11 11:48:14;;;;;;;0.00;0.00;;;;;;;;;;5063388;28;20028;-87
2023/10/11 11:50:39;;;;;;;0.00;0.00;;;;;;;;;;5065583;28;20339;-89
2023/10/11 11:53:05;;;;;;;0.00;0.00;;;;;;;;;;5070365;28;20036;-89
2023/10/11 11:55:32;;;;;;;0.00;0.00;;;;;;;;;;5049160;28;20058;-89
2023/10/11 11:57:58;;;;;;;0.00;0.00;;;;;;;;;;5065235;28;20028;-88
2023/10/11 12:02:51;;;;;;;0.00;0.00;;;;;;;;;;5063108;28;20021;-90
2023/10/11 12:05:17;;;;;;;0.00;0.00;;;;;;;;;;5047065;28;20051;-90
2023/10/11 12:07:43;;;;;;;0.00;0.00;;;;;;;;;;5046494;28;20425;-88
2023/10/11 12:10:23;;;;;;;0.00;0.00;;;;;;;;;;5045424;28;20166;-88
2023/10/11 12:13:05;;;;;;;;;;;;;;;;;;5049683;28;20036;-89
2023/10/11 12:15:33;;;;;;;0.00;0.00;;;;;;;;;;5048529;28;19919;-88
2023/10/11 12:17:59;;;;;;;0.00;0.00;;;;;;;;;;5031636;28;20028;-91
2023/10/11 12:20:33;;;;;;;0.00;0.00;;;;;;;;;;5048092;28;20101;-89
2023/10/11 12:23:11;;;;;;;0.00;0.00;;;;;;;;;;5065605;28;20021;-90
2023/10/11 12:25:37;;;;;;;0.00;0.00;;;;;;;;;;5044417;28;20055;-90
2023/10/11 12:28:05;;;;;;;0.00;0.00;;;;;;;;;;5066576;28;20024;-89
2023/10/11 12:30:35;;;;;;;0.10;0.00;;;;;;;;;;5065307;28;20027;-87
2023/10/11 12:33:10;;;;;;;;;;;;;;;;;;5048541;28;20032;-87
2023/10/11 12:35:37;;;;;;;0.00;0.00;;;;;;;;;;5079780;28;19918;-90
2023/10/11 12:38:03;;;;;;;0.00;0.00;;;;;;;;;;5061950;28;20028;-88
2023/10/11 12:40:28;;;;;;;0.00;0.00;;;;;;;;;;5051260;28;20036;-87
2023/10/11 12:42:55;;;;;;;0.00;0.00;;;;;;;;;;5081597;28;20454;-88
2023/10/11 12:45:21;;;;;;;0.00;0.00;;;;;;;;;;5065934;28;20044;-89
2023/10/11 12:47:47;;;;;;;0.00;0.00;;;;;;;;;;5090194;28;20109;-89
2023/10/11 12:50:14;;;;;;;0.00;0.00;;;;;;;;;;5084027;28;20027;-90
2023/10/11 12:52:42;;;;;;;0.00;0.00;;;;;;;;;;5064770;28;20039;-86
2023/10/11 12:55:08;;;;;;;0.08;0.00;;;;;;;;;;5062490;28;20028;-88
2023/10/11 12:57:38;;;;;;;0.00;0.00;;;;;;;;;;5077981;28;20081;-88
2023/10/11 13:00:48;;;;;;;;;;;;;;;;;;5062846;28;20365;-88
2023/10/11 13:06:03;;;;;;;0.00;0.00;;;;;;;;;;5039392;28;20131;-88
2023/10/11 13:08:29;;;;;;;0.00;0.00;;;;;;;;;;5046014;28;20419;-90
2023/10/11 13:10:54;;;;;;;0.00;0.00;;;;;;;;;;5079559;28;20028;-89
2023/10/11 13:13:21;;;;;;;0.00;0.00;;;;;;;;;;5063109;28;20036;-90
2023/10/11 13:16:00;;;;;;;0.00;0.00;;;;;;;;;;5082171;28;20409;-89
2023/10/11 13:18:29;;;;;;;0.00;0.00;;;;;;;;;;5087568;28;20111;-91
2023/10/11 13:20:59;;;;;;;0.00;0.00;;;;;;;;;;5082205;28;20055;-92
2023/10/11 13:23:34;;;;;;;0.00;0.00;;;;;;;;;;5079749;28;20024;-92
2023/10/11 13:26:00;;;;;;;0.00;0.00;;;;;;;;;;5102405;28;20119;-93
2023/10/11 13:28:28;;;;;;;0.00;0.00;;;;;;;;;;5082931;28;20028;-94
2023/10/11 13:30:55;;;;;;;0.00;0.00;;;;;;;;;;5091401;28;20377;-94
2023/10/11 13:33:21;;;;;;;0.00;0.00;;;;;;;;;;5068746;28;20126;-92
2023/10/11 13:35:47;;;;;;;0.00;0.00;;;;;;;;;;5047562;28;20086;-91
2023/10/11 13:38:20;;;;;;;0.00;0.00;;;;;;;;;;5063736;28;20056;-91
2023/10/11 13:40:46;;;;;;;0.00;0.00;;;;;;;;;;5062157;28;20097;-90
2023/10/11 13:43:12;;;;;;;0.00;0.00;;;;;;;;;;5056766;28;20032;-91
2023/10/11 13:45:40;;;;;;;0.00;0.00;;;;;;;;;;5042995;28;20453;-92
2023/10/11 13:48:11;;;;;;;0.00;0.00;;;;;;;;;;5031962;28;20032;-91
2023/10/11 13:50:38;;;;;;;0.00;0.00;;;;;;;;;;5069658;28;20046;-90
2023/10/11 13:53:04;;;;;;;0.00;0.00;;;;;;;;;;5086547;28;20421;-95
2023/10/11 13:55:43;;;;;;;0.00;0.00;;;;;;;;;;5102991;28;20031;-92
2023/10/11 13:58:11;;;;;;;0.00;0.00;;;;;;;;;;5105396;28;20039;-92
2023/10/11 14:03:55;;;;;;;0.00;0.00;;;;;;;;;;5083203;28;20384;-93
2023/10/11 14:06:30;;;;;;;0.00;0.00;;;;;;;;;;5071366;28;20028;-94
2023/10/11 14:08:47;;;;;;;0.00;0.00;;;;;;;;;;5072185;28;20028;-93
2023/10/11 14:11:14;;;;;;;0.00;0.00;;;;;;;;;;5102836;28;20035;-88
2023/10/11 14:13:44;;;;;;;0.00;0.00;;;;;;;;;;5065664;28;20016;-90
2023/10/11 14:16:14;;;;;;;0.00;0.00;;;;;;;;;;5080261;28;20028;-93
2023/10/11 14:18:39;;;;;;;0.00;0.00;;;;;;;;;;5070727;28;20087;-91
2023/10/11 14:21:12;;;;;;;0.00;0.00;;;;;;;;;;5086368;28;20032;-91
2023/10/11 14:23:38;;;;;;;0.00;0.00;;;;;;;;;;5070215;28;20027;-92
2023/10/11 14:26:05;;;;;;;0.00;0.00;;;;;;;;;;5046742;28;20030;-92
2023/10/11 14:28:31;;;;;;;0.00;0.00;;;;;;;;;;5062054;28;20059;-92
2023/10/11 14:30:56;;;;;;;0.00;0.00;;;;;;;;;;5077739;28;20055;-91
2023/10/11 14:33:22;;;;;;;0.00;0.00;;;;;;;;;;5062266;28;20421;-92
2023/10/11 14:35:48;;;;;;;0.00;0.00;;;;;;;;;;5062832;28;20024;-92
2023/10/11 14:38:14;;;;;;;0.00;0.00;;;;;;;;;;5045255;28;20047;-93
2023/10/11 14:40:46;;;;;;;0.10;0.00;;;;;;;;;;5062312;28;20309;-93
2023/10/11 14:43:13;;;;;;;0.00;0.00;;;;;;;;;;5062501;28;20024;-91
2023/10/11 14:45:39;;;;;;;0.00;0.00;;;;;;;;;;5063895;28;20041;-93
2023/10/11 14:48:08;;;;;;;0.00;0.00;;;;;;;;;;5058593;28;20057;-93
2023/10/11 14:50:34;;;;;;;0.00;0.00;;;;;;;;;;5032109;28;20408;-93
2023/10/11 14:52:59;;;;;;;0.00;0.00;;;;;;;;;;5041801;28;20090;-93
2023/10/11 14:55:26;;;;;;;0.10;0.00;;;;;;;;;;5060267;28;20031;-93
2023/10/11 14:57:55;;;;;;;0.00;0.00;;;;;;;;;;5042500;28;20032;-92
2023/10/11 15:00:24;;;;;;;0.00;0.00;;;;;;;;;;5076507;28;20031;-93
2023/10/11 15:02:50;;;;;;;0.00;0.00;;;;;;;;;;5022517;28;20472;-94
2023/10/11 15:05:16;;;;;;;0.00;0.00;;;;;;;;;;5038637;28;20025;-93
2023/10/11 15:07:46;;;;;;;0.00;0.00;;;;;;;;;;5025814;28;20029;-92
2023/10/11 15:10:11;;;;;;;0.00;0.00;;;;;;;;;;5043224;28;20080;-92
2023/10/11 15:12:41;;;;;;;0.00;0.00;;;;;;;;;;5060616;28;20056;-92
2023/10/11 15:15:07;;;;;;;0.00;0.00;;;;;;;;;;5061340;28;20025;-91
2023/10/11 15:17:33;;;;;;;0.00;0.00;;;;;;;;;;5091462;28;20016;-92
2023/10/11 15:19:58;;;;;;;0.00;0.00;;;;;;;;;;5084835;28;20046;-90
2023/10/11 15:22:24;;;;;;;0.00;0.00;;;;;;;;;;5073765;28;20028;-93
2023/10/11 15:24:49;;;;;;;0.00;0.00;;;;;;;;;;5062241;28;20019;-92
2023/10/11 15:27:16;;;;;;;0.00;0.00;;;;;;;;;;5078893;28;20034;-94
2023/10/11 15:29:41;;;;;;;0.00;0.00;;;;;;;;;;5062081;28;20020;-94
2023/10/11 15:32:07;;;;;;;0.00;0.00;;;;;;;;;;5068392;28;20047;-90
2023/10/11 15:34:32;;;;;;;0.00;0.00;;;;;;;;;;5062041;28;20415;-91
2023/10/11 15:36:58;;;;;;;0.00;0.00;;;;;;;;;;5077983;28;20089;-92
2023/10/11 15:39:26;;;;;;;0.00;0.00;;;;;;;;;;5061327;28;20067;-94
2023/10/11 15:41:55;;;;;;;0.00;0.00;;;;;;;;;;5061786;28;20028;-91
2023/10/11 15:44:21;;;;;;;0.00;0.00;;;;;;;;;;5086743;28;20031;-93
2023/10/11 15:46:46;;;;;;;0.00;0.00;;;;;;;;;;5096596;28;20034;-92
2023/10/11 15:49:12;;;;;;;0.00;0.00;;;;;;;;;;5096581;28;20046;-92
2023/10/11 15:51:39;;;;;;;0.00;0.00;;;;;;;;;;5118286;28;20035;-87
2023/10/11 15:54:07;;;;;;;0.00;0.00;;;;;;;;;;5102483;28;20049;-92
2023/10/11 15:56:33;;;;;;;0.10;0.00;;;;;;;;;;5098256;28;20034;-89
2023/10/11 15:58:59;;;;;;;0.00;0.00;;;;;;;;;;5094803;28;20035;-92
2023/10/11 16:01:24;;;;;;;0.00;0.00;;;;;;;;;;5092881;28;20035;-94
2023/10/11 16:03:53;;;;;;;0.00;0.00;;;;;;;;;;5085796;28;20032;-92
2023/10/11 16:06:19;;;;;;;0.00;0.00;;;;;;;;;;5070607;28;20024;-94
2023/10/11 16:08:45;;;;;;;0.00;0.00;;;;;;;;;;5081368;28;20008;-92
2023/10/11 16:11:15;;;;;;;0.00;0.00;;;;;;;;;;5045051;28;20036;-93
2023/10/11 16:13:41;;;;;;;0.00;0.00;;;;;;;;;;5077362;28;20032;-92
2023/10/11 16:16:08;;;;;;;0.00;0.00;;;;;;;;;;5077528;28;20059;-91
2023/10/11 16:18:33;;;;;;;0.00;0.00;;;;;;;;;;5076263;28;20447;-93
2023/10/11 16:21:00;;;;;;;0.00;0.00;;;;;;;;;;5038839;28;20035;-93
2023/10/11 16:23:27;;;;;;;0.00;0.00;;;;;;;;;;5073350;28;20100;-93
2023/10/11 16:25:55;;;;;;;0.00;0.00;;;;;;;;;;5040167;28;20085;-91
2023/10/11 16:28:23;;;;;;;0.00;0.00;;;;;;;;;;5074344;28;20409;-93
2023/10/11 16:30:53;;;;;;;0.00;0.00;;;;;;;;;;5041171;28;20024;-93
2023/10/11 16:33:20;;;;;;;0.00;0.00;;;;;;;;;;5050456;28;20036;-92
2023/10/11 16:35:47;;;;;;;0.00;0.00;;;;;;;;;;5074571;28;20035;-93
2023/10/11 16:38:13;;;;;;;0.00;0.00;;;;;;;;;;5056850;28;20020;-92
2023/10/11 16:40:39;;;;;;;0.00;0.00;;;;;;;;;;5040286;28;20086;-92
2023/10/11 16:43:04;;;;;;;0.00;0.00;;;;;;;;;;5073574;28;20036;-92
2023/10/11 16:45:31;;;;;;;0.00;0.00;;;;;;;;;;5073160;28;20045;-93
2023/10/11 16:47:57;;;;;;;0.00;0.00;;;;;;;;;;5056385;28;20032;-92
2023/10/11 16:50:25;;;;;;;0.00;0.00;;;;;;;;;;5056872;28;20024;-92